sensor_id;sensor_type;location;lat;lon;timestamp;P1;durP1;ratioP1;P2;durP2;ratioP2
47599;SDS011;33323;52.124;6.018;2024-01-27T00:00:40;14.68;;;3.55;;
47599;SDS011;33323;52.124;6.018;2024-01-27T00:03:07;12.73;;;3.67;;
47599;SDS011;33323;52.124;6.018;2024-01-27T00:05:35;12.23;;;2.63;;
47599;SDS011;33323;52.124;6.018;2024-01-27T00:08:02;13.15;;;3.05;;
47599;SDS011;33323;52.124;6.018;2024-01-27T00:10:30;23.25;;;3.88;;
47599;SDS011;33323;52.124;6.018;2024-01-27T00:12:57;15.20;;;3.97;;
47599;SDS011;33323;52.124;6.018;2024-01-27T00:15:24;24.98;;;4.20;;
47599;SDS011;33323;52.124;6.018;2024-01-27T00:17:51;11.15;;;3.60;;
47599;SDS011;33323;52.124;6.018;2024-01-27T00:20:19;8.60;;;3.25;;
47599;SDS011;33323;52.124;6.018;2024-01-27T00:22:46;21.13;;;5.07;;
47599;SDS011;33323;52.124;6.018;2024-01-27T00:25:13;14.20;;;3.95;;
47599;SDS011;33323;52.124;6.018;2024-01-27T00:27:40;15.60;;;4.30;;
47599;SDS011;33323;52.124;6.018;2024-01-27T00:30:08;18.73;;;4.75;;
47599;SDS011;33323;52.124;6.018;2024-01-27T00:32:38;25.88;;;4.53;;
47599;SDS011;33323;52.124;6.018;2024-01-27T00:35:05;15.88;;;5.00;;
47599;SDS011;33323;52.124;6.018;2024-01-27T00:37:34;20.55;;;3.70;;
47599;SDS011;33323;52.124;6.018;2024-01-27T00:40:01;20.23;;;6.88;;
47599;SDS011;33323;52.124;6.018;2024-01-27T00:42:29;11.15;;;3.47;;
47599;SDS011;33323;52.124;6.018;2024-01-27T00:44:56;26.02;;;4.30;;
47599;SDS011;33323;52.124;6.018;2024-01-27T00:47:23;16.40;;;4.68;;
47599;SDS011;33323;52.124;6.018;2024-01-27T00:49:50;12.68;;;3.70;;
47599;SDS011;33323;52.124;6.018;2024-01-27T00:52:17;10.77;;;3.75;;
47599;SDS011;33323;52.124;6.018;2024-01-27T00:54:44;18.05;;;4.22;;
47599;SDS011;33323;52.124;6.018;2024-01-27T00:57:11;13.88;;;4.32;;
47599;SDS011;33323;52.124;6.018;2024-01-27T00:59:38;17.80;;;4.13;;
47599;SDS011;33323;52.124;6.018;2024-01-27T01:02:06;19.48;;;4.15;;
47599;SDS011;33323;52.124;6.018;2024-01-27T01:04:33;14.75;;;3.95;;
47599;SDS011;33323;52.124;6.018;2024-01-27T01:07:00;16.65;;;2.88;;
47599;SDS011;33323;52.124;6.018;2024-01-27T01:09:27;19.15;;;3.75;;
47599;SDS011;33323;52.124;6.018;2024-01-27T01:11:54;12.73;;;3.40;;
47599;SDS011;33323;52.124;6.018;2024-01-27T01:14:22;30.48;;;4.05;;
47599;SDS011;33323;52.124;6.018;2024-01-27T01:16:49;17.27;;;3.55;;
47599;SDS011;33323;52.124;6.018;2024-01-27T01:19:16;17.58;;;4.00;;
47599;SDS011;33323;52.124;6.018;2024-01-27T01:21:43;18.23;;;4.13;;
47599;SDS011;33323;52.124;6.018;2024-01-27T01:24:10;25.02;;;4.47;;
47599;SDS011;33323;52.124;6.018;2024-01-27T01:26:37;19.20;;;3.97;;
47599;SDS011;33323;52.124;6.018;2024-01-27T01:29:04;11.38;;;2.78;;
47599;SDS011;33323;52.124;6.018;2024-01-27T01:31:31;23.55;;;4.85;;
47599;SDS011;33323;52.124;6.018;2024-01-27T01:33:58;14.65;;;3.25;;
47599;SDS011;33323;52.124;6.018;2024-01-27T01:36:25;17.27;;;3.38;;
47599;SDS011;33323;52.124;6.018;2024-01-27T01:38:52;17.75;;;5.07;;
47599;SDS011;33323;52.124;6.018;2024-01-27T01:41:19;19.98;;;4.35;;
47599;SDS011;33323;52.124;6.018;2024-01-27T01:43:46;22.80;;;4.22;;
47599;SDS011;33323;52.124;6.018;2024-01-27T01:46:13;12.10;;;4.15;;
47599;SDS011;33323;52.124;6.018;2024-01-27T01:48:40;21.50;;;3.28;;
47599;SDS011;33323;52.124;6.018;2024-01-27T01:51:08;18.75;;;5.05;;
47599;SDS011;33323;52.124;6.018;2024-01-27T01:53:35;17.50;;;3.17;;
47599;SDS011;33323;52.124;6.018;2024-01-27T01:56:02;15.25;;;3.50;;
47599;SDS011;33323;52.124;6.018;2024-01-27T01:58:31;17.85;;;3.70;;
47599;SDS011;33323;52.124;6.018;2024-01-27T02:01:00;10.82;;;3.58;;
47599;SDS011;33323;52.124;6.018;2024-01-27T02:03:28;21.77;;;4.65;;
47599;SDS011;33323;52.124;6.018;2024-01-27T02:05:55;7.97;;;3.78;;
47599;SDS011;33323;52.124;6.018;2024-01-27T02:08:23;16.63;;;5.68;;
47599;SDS011;33323;52.124;6.018;2024-01-27T02:10:50;17.35;;;4.85;;
47599;SDS011;33323;52.124;6.018;2024-01-27T02:15:49;21.67;;;5.25;;
47599;SDS011;33323;52.124;6.018;2024-01-27T02:18:17;22.52;;;5.30;;
47599;SDS011;33323;52.124;6.018;2024-01-27T02:20:45;17.75;;;4.32;;
47599;SDS011;33323;52.124;6.018;2024-01-27T02:23:12;20.15;;;4.78;;
47599;SDS011;33323;52.124;6.018;2024-01-27T02:25:39;19.55;;;4.18;;
47599;SDS011;33323;52.124;6.018;2024-01-27T02:28:06;20.92;;;5.38;;
47599;SDS011;33323;52.124;6.018;2024-01-27T02:30:34;17.77;;;4.05;;
47599;SDS011;33323;52.124;6.018;2024-01-27T02:33:01;27.63;;;5.03;;
47599;SDS011;33323;52.124;6.018;2024-01-27T02:35:28;11.15;;;4.18;;
47599;SDS011;33323;52.124;6.018;2024-01-27T02:37:56;12.63;;;4.10;;
47599;SDS011;33323;52.124;6.018;2024-01-27T02:40:23;16.90;;;4.22;;
47599;SDS011;33323;52.124;6.018;2024-01-27T02:42:50;16.83;;;4.03;;
47599;SDS011;33323;52.124;6.018;2024-01-27T02:45:17;18.88;;;4.95;;
47599;SDS011;33323;52.124;6.018;2024-01-27T02:47:44;12.80;;;5.20;;
47599;SDS011;33323;52.124;6.018;2024-01-27T02:50:11;14.43;;;3.75;;
47599;SDS011;33323;52.124;6.018;2024-01-27T02:52:38;17.48;;;4.38;;
47599;SDS011;33323;52.124;6.018;2024-01-27T02:55:05;14.18;;;4.72;;
47599;SDS011;33323;52.124;6.018;2024-01-27T02:57:33;16.33;;;4.72;;
47599;SDS011;33323;52.124;6.018;2024-01-27T03:00:00;15.77;;;4.07;;
47599;SDS011;33323;52.124;6.018;2024-01-27T03:02:27;14.77;;;3.90;;
47599;SDS011;33323;52.124;6.018;2024-01-27T03:04:54;15.45;;;4.47;;
47599;SDS011;33323;52.124;6.018;2024-01-27T03:07:21;26.08;;;4.82;;
47599;SDS011;33323;52.124;6.018;2024-01-27T03:09:48;16.23;;;4.55;;
47599;SDS011;33323;52.124;6.018;2024-01-27T03:12:16;12.32;;;3.72;;
47599;SDS011;33323;52.124;6.018;2024-01-27T03:14:44;11.13;;;3.88;;
47599;SDS011;33323;52.124;6.018;2024-01-27T03:17:12;19.48;;;4.82;;
47599;SDS011;33323;52.124;6.018;2024-01-27T03:19:39;20.40;;;5.82;;
47599;SDS011;33323;52.124;6.018;2024-01-27T03:22:06;18.20;;;4.85;;
47599;SDS011;33323;52.124;6.018;2024-01-27T03:24:33;25.35;;;5.53;;
47599;SDS011;33323;52.124;6.018;2024-01-27T03:27:01;12.18;;;4.30;;
47599;SDS011;33323;52.124;6.018;2024-01-27T03:29:28;18.83;;;7.38;;
47599;SDS011;33323;52.124;6.018;2024-01-27T03:31:55;19.05;;;4.65;;
47599;SDS011;33323;52.124;6.018;2024-01-27T03:34:22;15.68;;;5.55;;
47599;SDS011;33323;52.124;6.018;2024-01-27T03:36:51;12.23;;;3.75;;
47599;SDS011;33323;52.124;6.018;2024-01-27T03:39:18;16.52;;;4.00;;
47599;SDS011;33323;52.124;6.018;2024-01-27T03:41:45;16.95;;;3.47;;
47599;SDS011;33323;52.124;6.018;2024-01-27T03:44:12;15.02;;;4.78;;
47599;SDS011;33323;52.124;6.018;2024-01-27T03:46:39;14.82;;;4.28;;
47599;SDS011;33323;52.124;6.018;2024-01-27T03:49:06;14.43;;;4.22;;
47599;SDS011;33323;52.124;6.018;2024-01-27T03:51:34;20.27;;;4.63;;
47599;SDS011;33323;52.124;6.018;2024-01-27T03:54:01;17.15;;;5.47;;
47599;SDS011;33323;52.124;6.018;2024-01-27T03:56:28;18.73;;;5.65;;
47599;SDS011;33323;52.124;6.018;2024-01-27T03:58:55;12.00;;;4.03;;
47599;SDS011;33323;52.124;6.018;2024-01-27T04:01:22;13.07;;;4.15;;
47599;SDS011;33323;52.124;6.018;2024-01-27T04:03:49;19.70;;;4.80;;
47599;SDS011;33323;52.124;6.018;2024-01-27T04:06:16;22.33;;;6.00;;
47599;SDS011;33323;52.124;6.018;2024-01-27T04:08:43;14.70;;;3.92;;
47599;SDS011;33323;52.124;6.018;2024-01-27T04:11:20;13.52;;;3.83;;
47599;SDS011;33323;52.124;6.018;2024-01-27T04:13:49;15.50;;;4.82;;
47599;SDS011;33323;52.124;6.018;2024-01-27T04:16:17;18.95;;;5.78;;
47599;SDS011;33323;52.124;6.018;2024-01-27T04:18:44;18.02;;;5.93;;
47599;SDS011;33323;52.124;6.018;2024-01-27T04:21:13;15.73;;;4.78;;
47599;SDS011;33323;52.124;6.018;2024-01-27T04:23:40;14.43;;;4.75;;
47599;SDS011;33323;52.124;6.018;2024-01-27T04:26:07;14.20;;;4.68;;
47599;SDS011;33323;52.124;6.018;2024-01-27T04:28:35;17.85;;;5.68;;
47599;SDS011;33323;52.124;6.018;2024-01-27T04:31:03;21.83;;;6.63;;
47599;SDS011;33323;52.124;6.018;2024-01-27T04:33:30;18.48;;;5.35;;
47599;SDS011;33323;52.124;6.018;2024-01-27T04:35:58;16.85;;;5.75;;
47599;SDS011;33323;52.124;6.018;2024-01-27T04:38:25;16.10;;;5.53;;
47599;SDS011;33323;52.124;6.018;2024-01-27T04:40:52;18.73;;;5.55;;
47599;SDS011;33323;52.124;6.018;2024-01-27T04:43:20;22.38;;;7.30;;
47599;SDS011;33323;52.124;6.018;2024-01-27T04:45:47;24.33;;;7.00;;
47599;SDS011;33323;52.124;6.018;2024-01-27T04:48:15;14.73;;;5.18;;
47599;SDS011;33323;52.124;6.018;2024-01-27T04:50:43;16.75;;;6.05;;
47599;SDS011;33323;52.124;6.018;2024-01-27T04:53:10;11.52;;;4.70;;
47599;SDS011;33323;52.124;6.018;2024-01-27T04:55:37;14.88;;;5.63;;
47599;SDS011;33323;52.124;6.018;2024-01-27T04:58:06;17.45;;;5.47;;
47599;SDS011;33323;52.124;6.018;2024-01-27T05:00:33;15.40;;;5.57;;
47599;SDS011;33323;52.124;6.018;2024-01-27T05:03:01;27.42;;;7.32;;
47599;SDS011;33323;52.124;6.018;2024-01-27T05:05:31;20.00;;;6.45;;
47599;SDS011;33323;52.124;6.018;2024-01-27T05:08:02;16.27;;;5.78;;
47599;SDS011;33323;52.124;6.018;2024-01-27T05:10:30;18.77;;;7.00;;
47599;SDS011;33323;52.124;6.018;2024-01-27T05:12:57;22.58;;;7.40;;
47599;SDS011;33323;52.124;6.018;2024-01-27T05:15:24;23.88;;;7.15;;
47599;SDS011;33323;52.124;6.018;2024-01-27T05:17:51;23.00;;;7.40;;
47599;SDS011;33323;52.124;6.018;2024-01-27T05:20:18;18.23;;;6.43;;
47599;SDS011;33323;52.124;6.018;2024-01-27T05:22:46;24.77;;;7.05;;
47599;SDS011;33323;52.124;6.018;2024-01-27T05:25:12;25.52;;;7.70;;
47599;SDS011;33323;52.124;6.018;2024-01-27T05:27:40;15.18;;;7.50;;
47599;SDS011;33323;52.124;6.018;2024-01-27T05:30:07;22.58;;;7.38;;
47599;SDS011;33323;52.124;6.018;2024-01-27T05:32:35;25.48;;;9.38;;
47599;SDS011;33323;52.124;6.018;2024-01-27T05:35:02;20.95;;;8.55;;
47599;SDS011;33323;52.124;6.018;2024-01-27T05:37:31;26.90;;;9.60;;
47599;SDS011;33323;52.124;6.018;2024-01-27T05:39:58;24.85;;;8.63;;
47599;SDS011;33323;52.124;6.018;2024-01-27T05:42:25;20.52;;;8.00;;
47599;SDS011;33323;52.124;6.018;2024-01-27T05:44:53;24.13;;;9.20;;
47599;SDS011;33323;52.124;6.018;2024-01-27T05:47:20;22.02;;;9.95;;
47599;SDS011;33323;52.124;6.018;2024-01-27T05:49:47;25.17;;;10.02;;
47599;SDS011;33323;52.124;6.018;2024-01-27T05:52:14;28.42;;;10.60;;
47599;SDS011;33323;52.124;6.018;2024-01-27T05:54:51;22.00;;;9.80;;
47599;SDS011;33323;52.124;6.018;2024-01-27T05:57:19;37.20;;;9.70;;
47599;SDS011;33323;52.124;6.018;2024-01-27T05:59:46;21.70;;;10.38;;
47599;SDS011;33323;52.124;6.018;2024-01-27T06:02:13;30.58;;;10.52;;
47599;SDS011;33323;52.124;6.018;2024-01-27T06:04:41;29.05;;;10.38;;
47599;SDS011;33323;52.124;6.018;2024-01-27T06:07:08;18.10;;;8.77;;
47599;SDS011;33323;52.124;6.018;2024-01-27T06:09:36;20.45;;;9.88;;
47599;SDS011;33323;52.124;6.018;2024-01-27T06:12:04;19.83;;;9.68;;
47599;SDS011;33323;52.124;6.018;2024-01-27T06:14:32;26.80;;;10.27;;
47599;SDS011;33323;52.124;6.018;2024-01-27T06:16:59;23.73;;;9.75;;
47599;SDS011;33323;52.124;6.018;2024-01-27T06:19:29;22.13;;;9.65;;
47599;SDS011;33323;52.124;6.018;2024-01-27T06:21:56;20.77;;;9.85;;
47599;SDS011;33323;52.124;6.018;2024-01-27T06:24:23;23.67;;;10.20;;
47599;SDS011;33323;52.124;6.018;2024-01-27T06:26:50;28.75;;;10.60;;
47599;SDS011;33323;52.124;6.018;2024-01-27T06:29:17;19.02;;;9.80;;
47599;SDS011;33323;52.124;6.018;2024-01-27T06:31:45;23.40;;;9.45;;
47599;SDS011;33323;52.124;6.018;2024-01-27T06:34:12;29.55;;;10.52;;
47599;SDS011;33323;52.124;6.018;2024-01-27T06:36:39;24.25;;;8.80;;
47599;SDS011;33323;52.124;6.018;2024-01-27T06:39:07;21.63;;;9.55;;
47599;SDS011;33323;52.124;6.018;2024-01-27T06:41:34;21.13;;;10.35;;
47599;SDS011;33323;52.124;6.018;2024-01-27T06:44:02;26.70;;;11.18;;
47599;SDS011;33323;52.124;6.018;2024-01-27T06:46:29;31.77;;;9.95;;
47599;SDS011;33323;52.124;6.018;2024-01-27T06:48:56;24.55;;;9.63;;
47599;SDS011;33323;52.124;6.018;2024-01-27T06:51:24;34.20;;;10.77;;
47599;SDS011;33323;52.124;6.018;2024-01-27T06:53:50;27.38;;;10.88;;
47599;SDS011;33323;52.124;6.018;2024-01-27T06:56:18;15.98;;;9.70;;
47599;SDS011;33323;52.124;6.018;2024-01-27T06:58:45;16.08;;;8.88;;
47599;SDS011;33323;52.124;6.018;2024-01-27T07:01:12;27.52;;;9.82;;
47599;SDS011;33323;52.124;6.018;2024-01-27T07:03:39;24.95;;;10.10;;
47599;SDS011;33323;52.124;6.018;2024-01-27T07:06:07;24.90;;;10.82;;
47599;SDS011;33323;52.124;6.018;2024-01-27T07:08:34;30.35;;;10.95;;
47599;SDS011;33323;52.124;6.018;2024-01-27T07:11:04;27.00;;;9.63;;
47599;SDS011;33323;52.124;6.018;2024-01-27T07:13:31;28.33;;;11.02;;
47599;SDS011;33323;52.124;6.018;2024-01-27T07:15:59;21.30;;;9.23;;
47599;SDS011;33323;52.124;6.018;2024-01-27T07:18:26;28.55;;;10.23;;
47599;SDS011;33323;52.124;6.018;2024-01-27T07:20:53;23.05;;;9.75;;
47599;SDS011;33323;52.124;6.018;2024-01-27T07:23:24;18.15;;;9.40;;
47599;SDS011;33323;52.124;6.018;2024-01-27T07:25:52;18.60;;;10.13;;
47599;SDS011;33323;52.124;6.018;2024-01-27T07:28:19;25.90;;;10.93;;
47599;SDS011;33323;52.124;6.018;2024-01-27T07:30:47;26.25;;;9.93;;
47599;SDS011;33323;52.124;6.018;2024-01-27T07:33:14;31.08;;;9.43;;
47599;SDS011;33323;52.124;6.018;2024-01-27T07:35:42;22.83;;;11.48;;
47599;SDS011;33323;52.124;6.018;2024-01-27T07:38:10;26.25;;;11.98;;
47599;SDS011;33323;52.124;6.018;2024-01-27T07:40:38;24.48;;;9.52;;
47599;SDS011;33323;52.124;6.018;2024-01-27T07:43:06;20.77;;;9.52;;
47599;SDS011;33323;52.124;6.018;2024-01-27T07:45:33;27.67;;;10.13;;
47599;SDS011;33323;52.124;6.018;2024-01-27T07:48:01;24.73;;;11.35;;
47599;SDS011;33323;52.124;6.018;2024-01-27T07:50:30;22.27;;;9.50;;
47599;SDS011;33323;52.124;6.018;2024-01-27T07:52:59;23.45;;;10.35;;
47599;SDS011;33323;52.124;6.018;2024-01-27T07:55:28;19.20;;;9.32;;
47599;SDS011;33323;52.124;6.018;2024-01-27T07:57:55;25.58;;;10.50;;
47599;SDS011;33323;52.124;6.018;2024-01-27T08:00:23;28.00;;;10.75;;
47599;SDS011;33323;52.124;6.018;2024-01-27T08:02:51;24.38;;;12.32;;
47599;SDS011;33323;52.124;6.018;2024-01-27T08:05:18;28.60;;;11.18;;
47599;SDS011;33323;52.124;6.018;2024-01-27T08:07:47;21.65;;;10.05;;
47599;SDS011;33323;52.124;6.018;2024-01-27T08:10:16;21.52;;;10.23;;
47599;SDS011;33323;52.124;6.018;2024-01-27T08:12:44;19.00;;;10.18;;
47599;SDS011;33323;52.124;6.018;2024-01-27T08:15:11;26.35;;;11.40;;
47599;SDS011;33323;52.124;6.018;2024-01-27T08:17:39;22.17;;;10.13;;
47599;SDS011;33323;52.124;6.018;2024-01-27T08:20:08;25.30;;;10.85;;
47599;SDS011;33323;52.124;6.018;2024-01-27T08:22:36;25.17;;;10.65;;
47599;SDS011;33323;52.124;6.018;2024-01-27T08:25:04;27.83;;;11.82;;
47599;SDS011;33323;52.124;6.018;2024-01-27T08:27:32;20.00;;;11.73;;
47599;SDS011;33323;52.124;6.018;2024-01-27T08:29:59;21.88;;;10.20;;
47599;SDS011;33323;52.124;6.018;2024-01-27T08:32:27;28.35;;;10.55;;
47599;SDS011;33323;52.124;6.018;2024-01-27T08:34:55;28.65;;;11.40;;
47599;SDS011;33323;52.124;6.018;2024-01-27T08:37:24;27.35;;;11.30;;
47599;SDS011;33323;52.124;6.018;2024-01-27T08:39:55;27.42;;;11.55;;
47599;SDS011;33323;52.124;6.018;2024-01-27T08:42:22;20.70;;;10.43;;
47599;SDS011;33323;52.124;6.018;2024-01-27T08:44:50;22.88;;;10.93;;
47599;SDS011;33323;52.124;6.018;2024-01-27T08:47:19;19.30;;;10.00;;
47599;SDS011;33323;52.124;6.018;2024-01-27T08:49:48;28.50;;;11.40;;
47599;SDS011;33323;52.124;6.018;2024-01-27T08:52:16;21.48;;;10.80;;
47599;SDS011;33323;52.124;6.018;2024-01-27T08:54:44;26.55;;;11.23;;
47599;SDS011;33323;52.124;6.018;2024-01-27T08:57:11;25.48;;;10.77;;
47599;SDS011;33323;52.124;6.018;2024-01-27T08:59:39;24.38;;;9.80;;
47599;SDS011;33323;52.124;6.018;2024-01-27T09:02:06;21.75;;;10.98;;
47599;SDS011;33323;52.124;6.018;2024-01-27T09:04:34;21.27;;;8.88;;
47599;SDS011;33323;52.124;6.018;2024-01-27T09:07:02;24.10;;;9.70;;
47599;SDS011;33323;52.124;6.018;2024-01-27T09:09:30;29.02;;;9.57;;
47599;SDS011;33323;52.124;6.018;2024-01-27T09:11:58;19.73;;;9.60;;
47599;SDS011;33323;52.124;6.018;2024-01-27T09:14:25;24.33;;;10.00;;
47599;SDS011;33323;52.124;6.018;2024-01-27T09:16:53;23.63;;;9.38;;
47599;SDS011;33323;52.124;6.018;2024-01-27T09:19:20;18.05;;;8.43;;
47599;SDS011;33323;52.124;6.018;2024-01-27T09:21:50;13.85;;;8.60;;
47599;SDS011;33323;52.124;6.018;2024-01-27T09:24:19;28.25;;;9.43;;
47599;SDS011;33323;52.124;6.018;2024-01-27T09:26:47;29.17;;;9.18;;
47599;SDS011;33323;52.124;6.018;2024-01-27T09:29:14;20.10;;;8.52;;
47599;SDS011;33323;52.124;6.018;2024-01-27T09:31:42;19.08;;;8.27;;
47599;SDS011;33323;52.124;6.018;2024-01-27T09:34:09;24.95;;;8.93;;
47599;SDS011;33323;52.124;6.018;2024-01-27T09:36:37;22.05;;;8.70;;
47599;SDS011;33323;52.124;6.018;2024-01-27T09:39:04;23.83;;;9.73;;
47599;SDS011;33323;52.124;6.018;2024-01-27T09:41:31;16.83;;;8.23;;
47599;SDS011;33323;52.124;6.018;2024-01-27T09:44:02;21.60;;;8.43;;
47599;SDS011;33323;52.124;6.018;2024-01-27T09:46:31;20.17;;;8.95;;
47599;SDS011;33323;52.124;6.018;2024-01-27T09:48:58;26.23;;;8.75;;
47599;SDS011;33323;52.124;6.018;2024-01-27T09:51:27;14.10;;;8.40;;
47599;SDS011;33323;52.124;6.018;2024-01-27T09:53:55;22.25;;;8.75;;
47599;SDS011;33323;52.124;6.018;2024-01-27T09:56:23;19.08;;;7.82;;
47599;SDS011;33323;52.124;6.018;2024-01-27T09:58:51;22.88;;;10.10;;
47599;SDS011;33323;52.124;6.018;2024-01-27T10:01:21;20.52;;;8.68;;
47599;SDS011;33323;52.124;6.018;2024-01-27T10:03:52;20.00;;;7.63;;
47599;SDS011;33323;52.124;6.018;2024-01-27T10:06:21;15.77;;;8.55;;
47599;SDS011;33323;52.124;6.018;2024-01-27T10:08:53;17.83;;;7.75;;
47599;SDS011;33323;52.124;6.018;2024-01-27T10:11:21;15.68;;;6.97;;
47599;SDS011;33323;52.124;6.018;2024-01-27T10:13:54;24.77;;;7.22;;
47599;SDS011;33323;52.124;6.018;2024-01-27T10:16:25;15.55;;;5.82;;
47599;SDS011;33323;52.124;6.018;2024-01-27T10:19:00;15.80;;;6.35;;
47599;SDS011;33323;52.124;6.018;2024-01-27T10:21:30;18.27;;;6.00;;
47599;SDS011;33323;52.124;6.018;2024-01-27T10:23:59;15.65;;;5.82;;
47599;SDS011;33323;52.124;6.018;2024-01-27T10:26:32;24.80;;;8.00;;
47599;SDS011;33323;52.124;6.018;2024-01-27T10:29:01;17.75;;;6.15;;
47599;SDS011;33323;52.124;6.018;2024-01-27T10:31:29;18.48;;;7.70;;
47599;SDS011;33323;52.124;6.018;2024-01-27T10:33:58;22.50;;;6.45;;
47599;SDS011;33323;52.124;6.018;2024-01-27T10:36:38;13.35;;;5.75;;
47599;SDS011;33323;52.124;6.018;2024-01-27T10:39:20;17.17;;;5.82;;
47599;SDS011;33323;52.124;6.018;2024-01-27T10:41:50;10.65;;;5.85;;
47599;SDS011;33323;52.124;6.018;2024-01-27T10:44:19;13.60;;;6.38;;
47599;SDS011;33323;52.124;6.018;2024-01-27T10:46:47;14.05;;;7.32;;
47599;SDS011;33323;52.124;6.018;2024-01-27T10:49:17;17.92;;;5.60;;
47599;SDS011;33323;52.124;6.018;2024-01-27T10:51:45;8.23;;;3.88;;
47599;SDS011;33323;52.124;6.018;2024-01-27T10:54:24;9.40;;;4.95;;
47599;SDS011;33323;52.124;6.018;2024-01-27T10:56:55;15.77;;;5.78;;
47599;SDS011;33323;52.124;6.018;2024-01-27T10:59:26;15.88;;;6.82;;
47599;SDS011;33323;52.124;6.018;2024-01-27T11:01:55;20.15;;;5.25;;
47599;SDS011;33323;52.124;6.018;2024-01-27T11:04:23;13.85;;;5.07;;
47599;SDS011;33323;52.124;6.018;2024-01-27T11:06:53;19.35;;;5.97;;
47599;SDS011;33323;52.124;6.018;2024-01-27T11:09:22;22.92;;;5.63;;
47599;SDS011;33323;52.124;6.018;2024-01-27T11:11:50;14.10;;;5.38;;
47599;SDS011;33323;52.124;6.018;2024-01-27T11:14:19;18.02;;;5.80;;
47599;SDS011;33323;52.124;6.018;2024-01-27T11:16:54;14.98;;;5.32;;
47599;SDS011;33323;52.124;6.018;2024-01-27T11:19:23;14.50;;;5.70;;
47599;SDS011;33323;52.124;6.018;2024-01-27T11:22:03;13.23;;;4.68;;
47599;SDS011;33323;52.124;6.018;2024-01-27T11:24:30;9.05;;;4.30;;
47599;SDS011;33323;52.124;6.018;2024-01-27T11:27:02;15.50;;;5.22;;
47599;SDS011;33323;52.124;6.018;2024-01-27T11:29:34;14.85;;;5.10;;
47599;SDS011;33323;52.124;6.018;2024-01-27T11:32:03;13.90;;;4.43;;
47599;SDS011;33323;52.124;6.018;2024-01-27T11:34:44;12.40;;;4.55;;
47599;SDS011;33323;52.124;6.018;2024-01-27T11:37:13;8.15;;;4.32;;
47599;SDS011;33323;52.124;6.018;2024-01-27T11:39:42;9.55;;;4.97;;
47599;SDS011;33323;52.124;6.018;2024-01-27T11:42:13;17.65;;;4.13;;
47599;SDS011;33323;52.124;6.018;2024-01-27T11:44:43;10.05;;;4.72;;
47599;SDS011;33323;52.124;6.018;2024-01-27T11:47:15;12.80;;;4.40;;
47599;SDS011;33323;52.124;6.018;2024-01-27T11:49:52;14.73;;;5.45;;
47599;SDS011;33323;52.124;6.018;2024-01-27T11:52:23;12.32;;;4.53;;
47599;SDS011;33323;52.124;6.018;2024-01-27T11:54:55;13.73;;;4.20;;
47599;SDS011;33323;52.124;6.018;2024-01-27T11:57:24;27.85;;;5.47;;
47599;SDS011;33323;52.124;6.018;2024-01-27T11:59:52;18.48;;;4.63;;
47599;SDS011;33323;52.124;6.018;2024-01-27T12:02:24;7.55;;;3.03;;
47599;SDS011;33323;52.124;6.018;2024-01-27T12:04:52;12.13;;;3.58;;
47599;SDS011;33323;52.124;6.018;2024-01-27T12:07:20;10.73;;;3.92;;
47599;SDS011;33323;52.124;6.018;2024-01-27T12:09:49;13.40;;;3.60;;
47599;SDS011;33323;52.124;6.018;2024-01-27T12:12:22;14.23;;;3.75;;
47599;SDS011;33323;52.124;6.018;2024-01-27T12:14:50;12.27;;;3.30;;
47599;SDS011;33323;52.124;6.018;2024-01-27T12:17:18;12.32;;;3.80;;
47599;SDS011;33323;52.124;6.018;2024-01-27T12:19:47;16.30;;;3.90;;
47599;SDS011;33323;52.124;6.018;2024-01-27T12:22:25;15.05;;;3.92;;
47599;SDS011;33323;52.124;6.018;2024-01-27T12:25:16;8.95;;;3.78;;
47599;SDS011;33323;52.124;6.018;2024-01-27T12:27:42;15.13;;;4.20;;
47599;SDS011;33323;52.124;6.018;2024-01-27T12:30:10;12.77;;;3.20;;
47599;SDS011;33323;52.124;6.018;2024-01-27T12:32:38;18.50;;;5.78;;
47599;SDS011;33323;52.124;6.018;2024-01-27T12:35:07;11.90;;;4.13;;
47599;SDS011;33323;52.124;6.018;2024-01-27T12:37:35;16.15;;;4.32;;
47599;SDS011;33323;52.124;6.018;2024-01-27T12:40:16;12.88;;;4.00;;
47599;SDS011;33323;52.124;6.018;2024-01-27T12:42:49;15.60;;;4.40;;
47599;SDS011;33323;52.124;6.018;2024-01-27T12:45:18;15.80;;;4.53;;
47599;SDS011;33323;52.124;6.018;2024-01-27T12:47:48;12.80;;;3.60;;
47599;SDS011;33323;52.124;6.018;2024-01-27T12:50:17;19.20;;;4.55;;
47599;SDS011;33323;52.124;6.018;2024-01-27T12:52:45;14.20;;;3.85;;
47599;SDS011;33323;52.124;6.018;2024-01-27T12:55:12;9.77;;;3.45;;
47599;SDS011;33323;52.124;6.018;2024-01-27T12:57:39;11.98;;;4.63;;
47599;SDS011;33323;52.124;6.018;2024-01-27T13:00:07;10.20;;;3.90;;
47599;SDS011;33323;52.124;6.018;2024-01-27T13:02:39;17.98;;;4.97;;
47599;SDS011;33323;52.124;6.018;2024-01-27T13:05:07;8.70;;;3.97;;
47599;SDS011;33323;52.124;6.018;2024-01-27T13:07:34;20.02;;;4.03;;
47599;SDS011;33323;52.124;6.018;2024-01-27T13:10:02;9.10;;;4.03;;
47599;SDS011;33323;52.124;6.018;2024-01-27T13:12:30;22.30;;;5.85;;
47599;SDS011;33323;52.124;6.018;2024-01-27T13:14:58;11.10;;;5.00;;
47599;SDS011;33323;52.124;6.018;2024-01-27T13:17:25;9.13;;;3.95;;
47599;SDS011;33323;52.124;6.018;2024-01-27T13:19:52;8.70;;;4.00;;
47599;SDS011;33323;52.124;6.018;2024-01-27T13:22:20;7.05;;;3.67;;
47599;SDS011;33323;52.124;6.018;2024-01-27T13:24:53;12.20;;;5.72;;
47599;SDS011;33323;52.124;6.018;2024-01-27T13:27:21;16.02;;;3.40;;
47599;SDS011;33323;52.124;6.018;2024-01-27T13:29:48;13.88;;;4.45;;
47599;SDS011;33323;52.124;6.018;2024-01-27T13:32:16;12.40;;;4.53;;
47599;SDS011;33323;52.124;6.018;2024-01-27T13:34:43;15.85;;;4.68;;
47599;SDS011;33323;52.124;6.018;2024-01-27T13:37:10;12.23;;;4.07;;
47599;SDS011;33323;52.124;6.018;2024-01-27T13:39:37;11.00;;;3.42;;
47599;SDS011;33323;52.124;6.018;2024-01-27T13:42:04;8.40;;;3.67;;
47599;SDS011;33323;52.124;6.018;2024-01-27T13:44:32;12.38;;;3.65;;
47599;SDS011;33323;52.124;6.018;2024-01-27T13:47:02;10.05;;;3.15;;
47599;SDS011;33323;52.124;6.018;2024-01-27T13:49:31;15.70;;;3.33;;
47599;SDS011;33323;52.124;6.018;2024-01-27T13:51:59;7.30;;;2.40;;
47599;SDS011;33323;52.124;6.018;2024-01-27T13:54:30;12.30;;;4.13;;
47599;SDS011;33323;52.124;6.018;2024-01-27T13:56:59;9.07;;;3.05;;
47599;SDS011;33323;52.124;6.018;2024-01-27T13:59:27;12.63;;;4.13;;
47599;SDS011;33323;52.124;6.018;2024-01-27T14:01:55;9.43;;;3.17;;
47599;SDS011;33323;52.124;6.018;2024-01-27T14:04:24;17.23;;;3.33;;
47599;SDS011;33323;52.124;6.018;2024-01-27T14:06:51;16.85;;;3.53;;
47599;SDS011;33323;52.124;6.018;2024-01-27T14:09:23;10.45;;;2.78;;
47599;SDS011;33323;52.124;6.018;2024-01-27T14:11:50;13.38;;;2.55;;
47599;SDS011;33323;52.124;6.018;2024-01-27T14:14:17;10.60;;;2.70;;
47599;SDS011;33323;52.124;6.018;2024-01-27T14:16:44;14.00;;;3.13;;
47599;SDS011;33323;52.124;6.018;2024-01-27T14:19:12;11.57;;;2.63;;
47599;SDS011;33323;52.124;6.018;2024-01-27T14:21:40;12.20;;;2.95;;
47599;SDS011;33323;52.124;6.018;2024-01-27T14:24:07;9.88;;;3.17;;
47599;SDS011;33323;52.124;6.018;2024-01-27T14:26:35;8.68;;;2.95;;
47599;SDS011;33323;52.124;6.018;2024-01-27T14:29:02;7.18;;;2.72;;
47599;SDS011;33323;52.124;6.018;2024-01-27T14:31:30;25.13;;;4.07;;
47599;SDS011;33323;52.124;6.018;2024-01-27T14:33:58;13.15;;;4.00;;
47599;SDS011;33323;52.124;6.018;2024-01-27T14:36:25;12.07;;;2.88;;
47599;SDS011;33323;52.124;6.018;2024-01-27T14:38:52;10.90;;;3.20;;
47599;SDS011;33323;52.124;6.018;2024-01-27T14:41:20;9.98;;;2.58;;